Terminal Aerodrome Forecast
Issued by NWS

Home | Current Version | Previous Version | Text Only | Print | Product List | Glossary On
Versions: 1 2 3 4 5 6 7 8 9 10 11 12 13 14 15 16 17 18 19
000
FTUS46 KLOX 291200 AAA
TAFLGB
TAF AMD
KLGB 291208Z 2912/3012 VRB05KT 5SM BR BKN004 OVC008
     FM291300 VRB03KT 3SM BR OVC003
     FM291600 VRB03KT 6SM HZ BKN250
     FM291900 20007KT P6SM SCT250
     FM292300 29008KT P6SM SCT250
     FM300200 VRB05KT P6SM SCT250
     FM301000 VRB05KT 2SM BR BKN002=

USA.gov is the U.S. government's official web portal to all federal, state and local government web resources and services.